createdAt,value
2018-08-03T00:01:22.461Z,2.73
2018-08-03T00:03:53.075Z,3.33
2018-08-03T00:06:23.753Z,5.03
2018-08-03T00:08:54.434Z,4.33
2018-08-03T00:11:25.128Z,8.10
2018-08-03T00:13:55.801Z,3.37
2018-08-03T00:16:26.507Z,2.87
2018-08-03T00:18:57.190Z,3.87
2018-08-03T00:21:28.034Z,6.33
2018-08-03T00:23:58.812Z,3.90
2018-08-03T00:26:29.503Z,4.57
2018-08-03T00:29:00.257Z,2.87
2018-08-03T00:31:30.918Z,2.60
2018-08-03T00:34:01.637Z,4.07
2018-08-03T00:36:32.327Z,4.00
2018-08-03T00:39:03.045Z,5.37
2018-08-03T00:41:33.724Z,3.07
2018-08-03T00:44:04.480Z,4.57
2018-08-03T00:46:35.153Z,3.10
2018-08-03T00:49:05.842Z,3.70
2018-08-03T00:51:36.567Z,5.10
2018-08-03T00:54:07.326Z,3.33
2018-08-03T00:56:37.962Z,2.70
2018-08-03T00:59:08.300Z,3.10
2018-08-03T01:01:38.918Z,2.67
2018-08-03T01:04:09.639Z,2.87
2018-08-03T01:06:40.340Z,3.57
2018-08-03T01:09:12.679Z,5.87
2018-08-03T01:11:43.328Z,5.97
2018-08-03T01:14:14.029Z,5.07
2018-08-03T01:16:44.668Z,4.00
2018-08-03T01:19:15.851Z,4.43
2018-08-03T01:21:46.551Z,3.70
2018-08-03T01:24:17.239Z,3.13
2018-08-03T01:26:47.863Z,3.03
2018-08-03T01:29:18.534Z,3.50
2018-08-03T01:31:49.191Z,3.37
2018-08-03T01:34:19.930Z,5.00
2018-08-03T01:36:50.615Z,4.17
2018-08-03T01:39:21.239Z,4.33
2018-08-03T01:41:51.897Z,5.63
2018-08-03T01:44:22.548Z,3.20
2018-08-03T01:46:53.227Z,2.93
2018-08-03T01:49:23.852Z,3.97
2018-08-03T01:51:54.531Z,2.83
2018-08-03T01:54:25.190Z,2.97
2018-08-03T01:56:55.874Z,4.07
2018-08-03T01:59:26.564Z,4.37
2018-08-03T02:01:57.212Z,2.40
2018-08-03T02:04:27.843Z,4.73
2018-08-03T02:06:58.554Z,2.90
2018-08-03T02:09:29.211Z,2.67
2018-08-03T02:11:59.876Z,3.70
2018-08-03T02:14:30.595Z,3.50
2018-08-03T02:17:01.512Z,4.37
2018-08-03T02:19:32.164Z,2.97
2018-08-03T02:22:02.796Z,3.60
2018-08-03T02:24:33.445Z,3.70
2018-08-03T02:27:04.101Z,2.80
2018-08-03T02:29:34.786Z,5.20
2018-08-03T02:32:05.439Z,3.30
2018-08-03T02:34:36.144Z,3.30
2018-08-03T02:37:06.808Z,3.13
2018-08-03T02:39:37.452Z,3.90
2018-08-03T02:42:08.242Z,4.27
2018-08-03T02:44:38.889Z,3.47
2018-08-03T02:47:09.521Z,4.27
2018-08-03T02:49:40.223Z,4.10
2018-08-03T02:52:11.391Z,3.23
2018-08-03T02:54:42.040Z,3.83
2018-08-03T02:57:12.698Z,3.67
2018-08-03T02:59:43.360Z,2.73
2018-08-03T03:02:14.040Z,3.50
2018-08-03T03:04:44.713Z,2.83
2018-08-03T03:07:15.414Z,3.77
2018-08-03T03:09:46.104Z,4.87
2018-08-03T03:12:16.732Z,4.57
2018-08-03T03:14:47.404Z,2.97
2018-08-03T03:17:32.482Z,4.53
2018-08-03T03:20:03.256Z,5.73
2018-08-03T03:22:33.906Z,2.70
2018-08-03T03:25:04.655Z,2.63
2018-08-03T03:27:35.327Z,4.00
2018-08-03T03:30:07.715Z,3.63
2018-08-03T03:32:38.458Z,2.60
2018-08-03T03:35:09.204Z,2.57
2018-08-03T03:37:39.824Z,4.07
2018-08-03T03:40:10.489Z,3.93
2018-08-03T03:42:41.102Z,4.70
2018-08-03T03:45:11.759Z,3.30
2018-08-03T03:47:42.398Z,3.53
2018-08-03T03:50:13.062Z,3.53
2018-08-03T03:52:43.715Z,7.20
2018-08-03T03:55:14.452Z,4.83
2018-08-03T03:57:45.129Z,3.70
2018-08-03T04:00:15.800Z,3.33
2018-08-03T04:02:46.495Z,4.17
2018-08-03T04:05:17.192Z,4.43
2018-08-03T04:07:47.904Z,7.63
2018-08-03T04:10:18.532Z,7.53
2018-08-03T04:12:49.208Z,4.13
2018-08-03T04:15:19.887Z,6.50
2018-08-03T04:17:50.576Z,6.97
2018-08-03T04:20:21.246Z,5.70
2018-08-03T04:22:51.944Z,6.57
2018-08-03T04:25:22.652Z,4.20
2018-08-03T04:27:53.326Z,4.23
2018-08-03T04:30:23.995Z,5.57
2018-08-03T04:32:54.603Z,6.07
2018-08-03T04:35:25.241Z,5.53
2018-08-03T04:37:55.915Z,6.17
2018-08-03T04:40:26.557Z,5.40
2018-08-03T04:42:57.218Z,4.63
2018-08-03T04:45:27.820Z,5.63
2018-08-03T04:47:58.492Z,4.67
2018-08-03T04:50:29.342Z,4.20
2018-08-03T04:53:00.019Z,4.73
2018-08-03T04:55:30.666Z,8.47
2018-08-03T04:58:01.387Z,6.50
2018-08-03T05:00:32.114Z,6.10
2018-08-03T05:03:02.870Z,8.00
2018-08-03T05:05:33.523Z,8.57
2018-08-03T05:08:04.281Z,5.43
2018-08-03T05:10:34.965Z,7.33
2018-08-03T05:13:05.680Z,6.27
2018-08-03T05:15:36.401Z,9.20
2018-08-03T05:18:07.115Z,6.10
2018-08-03T05:20:37.826Z,5.80
2018-08-03T05:23:08.448Z,5.37
2018-08-03T05:25:39.160Z,8.17
2018-08-03T05:28:09.854Z,7.93
2018-08-03T05:30:40.539Z,5.47
2018-08-03T05:33:11.484Z,5.77
2018-08-03T05:35:42.163Z,6.73
2018-08-03T05:38:11.778Z,7.40
2018-08-03T05:40:42.226Z,7.47
2018-08-03T05:43:12.949Z,7.20
2018-08-03T05:45:43.560Z,9.77
2018-08-03T05:48:14.270Z,6.07
2018-08-03T05:50:44.944Z,6.10
2018-08-03T05:53:15.609Z,11.00
2018-08-03T05:55:46.256Z,8.73
2018-08-03T05:58:17.291Z,7.80
2018-08-03T06:00:48.035Z,9.30
2018-08-03T06:03:18.911Z,8.07
2018-08-03T06:05:49.597Z,7.97
2018-08-03T06:08:20.350Z,10.47
2018-08-03T06:10:51.004Z,8.60
2018-08-03T06:13:21.646Z,11.23
2018-08-03T06:15:52.312Z,12.83
2018-08-03T06:18:22.999Z,12.23
2018-08-03T06:20:53.671Z,8.90
2018-08-03T06:23:24.307Z,9.00
2018-08-03T06:25:55.020Z,10.17
2018-08-03T06:28:25.728Z,12.47
2018-08-03T06:30:56.409Z,9.90
2018-08-03T06:33:27.047Z,10.33
2018-08-03T06:35:57.879Z,10.00
2018-08-03T06:38:28.546Z,8.10
2018-08-03T06:40:59.232Z,7.53
2018-08-03T06:43:29.890Z,10.13
2018-08-03T06:46:00.554Z,8.50
2018-08-03T06:48:31.257Z,8.10
2018-08-03T06:51:01.906Z,6.27
2018-08-03T06:53:32.565Z,8.00
2018-08-03T06:56:03.378Z,7.87
2018-08-03T06:58:34.036Z,11.20
2018-08-03T07:01:04.810Z,10.63
2018-08-03T07:03:35.480Z,6.63
2018-08-03T07:06:06.199Z,12.47
2018-08-03T07:08:36.866Z,10.60
2018-08-03T07:11:07.867Z,10.47
2018-08-03T07:13:38.519Z,10.00
2018-08-03T07:16:09.190Z,8.67
2018-08-03T07:18:39.852Z,9.43
2018-08-03T07:21:11.310Z,11.90
2018-08-03T07:23:42.021Z,12.57
2018-08-03T07:26:12.775Z,10.60
2018-08-03T07:28:43.463Z,13.77
2018-08-03T07:31:14.089Z,15.93
2018-08-03T07:33:44.873Z,9.50
2018-08-03T07:36:15.607Z,13.23
2018-08-03T07:38:46.316Z,13.60
2018-08-03T07:41:17.018Z,7.90
2018-08-03T07:43:47.678Z,12.93
2018-08-03T07:46:18.317Z,10.70
2018-08-03T07:48:48.946Z,14.67
2018-08-03T07:51:19.613Z,12.00
2018-08-03T07:53:50.237Z,13.30
2018-08-03T07:56:20.891Z,10.80
2018-08-03T07:58:51.844Z,5.20
2018-08-03T08:01:22.515Z,6.47
2018-08-03T08:03:53.740Z,7.97
2018-08-03T08:06:24.422Z,11.20
2018-08-03T08:08:55.136Z,10.63
2018-08-03T08:11:25.840Z,13.83
2018-08-03T08:13:56.576Z,6.97
2018-08-03T08:16:27.287Z,10.37
2018-08-03T08:18:58.034Z,6.23
2018-08-03T08:21:28.940Z,7.53
2018-08-03T08:23:59.594Z,9.67
2018-08-03T08:26:30.269Z,8.77
2018-08-03T08:29:00.968Z,11.27
2018-08-03T08:31:31.720Z,10.80
2018-08-03T08:34:02.397Z,7.70
2018-08-03T08:36:33.072Z,6.63
2018-08-03T08:39:34.773Z,7.60
2018-08-03T08:42:05.514Z,6.83
2018-08-03T08:44:36.292Z,6.13
2018-08-03T08:47:07.102Z,6.90
2018-08-03T08:49:37.837Z,11.67
2018-08-03T08:52:08.710Z,6.57
2018-08-03T08:54:39.437Z,5.50
2018-08-03T08:57:10.065Z,5.83
2018-08-03T08:59:40.868Z,6.50
2018-08-03T09:02:11.496Z,4.73
2018-08-03T09:04:42.172Z,9.03
2018-08-03T09:07:12.816Z,6.33
2018-08-03T09:09:43.502Z,7.60
2018-08-03T09:12:14.180Z,10.07
2018-08-03T09:14:44.869Z,6.67
2018-08-03T09:17:15.564Z,4.90
2018-08-03T09:19:46.249Z,5.53
2018-08-03T09:22:16.928Z,5.00
2018-08-03T09:24:47.588Z,5.10
2018-08-03T09:27:18.248Z,4.87
2018-08-03T09:29:48.908Z,5.37
2018-08-03T09:32:19.598Z,4.13
2018-08-03T09:34:50.225Z,10.23
2018-08-03T09:37:20.860Z,4.10
2018-08-03T09:39:51.694Z,4.30
2018-08-03T09:42:22.362Z,12.17
2018-08-03T09:44:53.130Z,6.23
2018-08-03T09:47:23.839Z,4.87
2018-08-03T09:49:54.571Z,4.47
2018-08-03T09:52:25.261Z,7.75
2018-08-03T09:54:55.967Z,4.95
2018-08-03T09:57:26.622Z,5.72
2018-08-03T09:59:57.353Z,4.50
2018-08-03T10:02:28.045Z,7.90
2018-08-03T10:04:58.693Z,4.00
2018-08-03T10:07:29.421Z,10.20
2018-08-03T10:10:00.129Z,4.22
2018-08-03T10:12:30.799Z,7.33
2018-08-03T10:15:01.454Z,5.83
2018-08-03T10:17:32.140Z,4.15
2018-08-03T10:20:02.843Z,4.40
2018-08-03T10:22:33.589Z,5.50
2018-08-03T10:25:04.207Z,9.03
2018-08-03T10:27:34.877Z,5.40
2018-08-03T10:30:07.012Z,4.30
2018-08-03T10:32:38.596Z,5.17
2018-08-03T10:35:09.326Z,4.75
2018-08-03T10:37:40.015Z,4.22
2018-08-03T10:40:10.762Z,4.00
2018-08-03T10:42:41.462Z,5.42
2018-08-03T10:45:12.168Z,4.33
2018-08-03T10:47:42.863Z,6.10
2018-08-03T10:50:14.589Z,4.83
2018-08-03T10:52:45.804Z,5.78
2018-08-03T10:55:16.482Z,4.70
2018-08-03T10:57:47.153Z,3.08
2018-08-03T11:00:28.435Z,6.42
2018-08-03T11:02:59.576Z,5.10
2018-08-03T11:05:30.618Z,5.40
2018-08-03T11:08:01.259Z,4.40
2018-08-03T11:10:32.004Z,4.35
2018-08-03T11:13:02.710Z,9.10
2018-08-03T11:15:33.360Z,6.05
2018-08-03T11:18:04.047Z,5.12
2018-08-03T11:20:34.701Z,4.22
2018-08-03T11:23:05.436Z,4.42
2018-08-03T11:25:36.283Z,7.35
2018-08-03T11:28:07.027Z,7.28
2018-08-03T11:30:37.740Z,8.15
2018-08-03T11:33:08.395Z,6.22
2018-08-03T11:35:39.044Z,7.58
2018-08-03T11:38:09.672Z,5.60
2018-08-03T11:40:41.512Z,6.30
2018-08-03T11:43:12.167Z,5.78
2018-08-03T11:45:42.848Z,4.65
2018-08-03T11:48:13.494Z,4.77
2018-08-03T11:50:44.391Z,4.30
2018-08-03T11:53:15.052Z,7.60
2018-08-03T11:55:46.293Z,7.45
2018-08-03T11:58:16.892Z,4.42
2018-08-03T12:00:47.767Z,6.03
2018-08-03T12:03:18.379Z,4.17
2018-08-03T12:05:49.017Z,5.45
2018-08-03T12:08:19.632Z,4.20
2018-08-03T12:10:50.386Z,3.60
2018-08-03T12:13:21.076Z,3.37
2018-08-03T12:15:51.751Z,3.92
2018-08-03T12:18:22.617Z,4.58
2018-08-03T12:20:53.465Z,4.95
2018-08-03T12:23:24.187Z,3.40
2018-08-03T12:25:54.764Z,5.17
2018-08-03T12:28:25.475Z,3.55
2018-08-03T12:30:56.160Z,3.47
2018-08-03T12:33:26.824Z,3.40
2018-08-03T12:35:57.527Z,3.50
2018-08-03T12:38:28.182Z,5.40
2018-08-03T12:40:58.940Z,5.92
2018-08-03T12:43:30.076Z,3.85
2018-08-03T12:46:03.767Z,5.28
2018-08-03T12:48:34.515Z,4.62
2018-08-03T12:51:05.203Z,3.58
2018-08-03T12:53:36.366Z,3.60
2018-08-03T12:56:07.133Z,4.37
2018-08-03T12:58:37.812Z,6.95
2018-08-03T13:01:08.515Z,5.55
2018-08-03T13:03:39.172Z,3.80
2018-08-03T13:06:09.776Z,3.83
2018-08-03T13:08:40.478Z,4.37
2018-08-03T13:11:11.116Z,3.58
2018-08-03T13:13:41.803Z,3.83
2018-08-03T13:16:12.428Z,4.92
2018-08-03T13:18:43.104Z,5.97
2018-08-03T13:21:30.533Z,3.90
2018-08-03T13:24:02.046Z,3.75
2018-08-03T13:26:32.794Z,4.17
2018-08-03T13:29:03.616Z,4.97
2018-08-03T13:31:34.358Z,3.35
2018-08-03T13:34:05.090Z,3.98
2018-08-03T13:36:35.765Z,4.70
2018-08-03T13:39:09.330Z,4.00
2018-08-03T13:41:39.955Z,4.55
2018-08-03T13:44:10.672Z,4.15
2018-08-03T13:46:41.385Z,3.12
2018-08-03T13:49:12.008Z,3.60
2018-08-03T13:51:42.671Z,4.55
2018-08-03T13:54:13.352Z,3.35
2018-08-03T13:56:44.059Z,3.65
2018-08-03T13:59:14.696Z,3.40
2018-08-03T14:02:02.085Z,3.70
2018-08-03T14:04:32.728Z,3.75
2018-08-03T14:07:03.446Z,3.75
2018-08-03T14:09:34.074Z,3.92
2018-08-03T14:12:04.845Z,3.87
2018-08-03T14:14:35.506Z,3.55
2018-08-03T14:17:06.522Z,3.42
2018-08-03T14:19:37.155Z,5.15
2018-08-03T14:22:07.879Z,6.90
2018-08-03T14:24:38.506Z,5.15
2018-08-03T14:27:09.335Z,6.20
2018-08-03T14:29:39.991Z,3.60
2018-08-03T14:32:10.782Z,4.95
2018-08-03T14:34:41.442Z,4.97
2018-08-03T14:37:12.083Z,4.45
2018-08-03T14:39:42.720Z,3.60
2018-08-03T14:42:13.087Z,5.85
2018-08-03T14:44:43.584Z,4.70
2018-08-03T14:47:14.281Z,3.45
2018-08-03T14:49:44.900Z,3.70
2018-08-03T14:52:15.595Z,3.92
2018-08-03T14:54:46.275Z,3.98
2018-08-03T14:57:16.934Z,3.77
2018-08-03T14:59:47.574Z,5.03
2018-08-03T15:02:18.254Z,5.67
2018-08-03T15:04:48.918Z,3.80
2018-08-03T15:07:19.576Z,5.42
2018-08-03T15:09:50.206Z,3.70
2018-08-03T15:12:20.869Z,3.98
2018-08-03T15:14:51.538Z,5.30
2018-08-03T15:17:22.262Z,4.03
2018-08-03T15:19:52.951Z,3.98
2018-08-03T15:22:24.786Z,3.83
2018-08-03T15:24:55.714Z,3.65
2018-08-03T15:27:26.402Z,4.00
2018-08-03T15:29:57.072Z,3.62
2018-08-03T15:32:27.676Z,7.00
2018-08-03T15:34:58.237Z,4.72
2018-08-03T15:37:28.911Z,3.62
2018-08-03T15:39:59.553Z,3.37
2018-08-03T15:42:30.258Z,4.17
2018-08-03T15:45:00.938Z,4.12
2018-08-03T15:47:31.576Z,3.90
2018-08-03T15:50:02.277Z,4.08
2018-08-03T15:52:32.895Z,5.62
2018-08-03T15:55:03.672Z,8.23
2018-08-03T15:57:34.373Z,5.00
2018-08-03T16:00:06.932Z,4.17
2018-08-03T16:02:37.615Z,4.50
2018-08-03T16:05:09.325Z,4.00
2018-08-03T16:07:39.961Z,5.85
2018-08-03T16:10:10.696Z,3.77
2018-08-03T16:12:41.358Z,5.47
2018-08-03T16:15:12.052Z,6.30
2018-08-03T16:17:42.723Z,3.92
2018-08-03T16:20:13.415Z,4.37
2018-08-03T16:22:44.140Z,4.37
2018-08-03T16:25:14.924Z,4.20
2018-08-03T16:27:45.636Z,4.62
2018-08-03T16:30:16.321Z,4.62
2018-08-03T16:32:47.031Z,4.90
2018-08-03T16:35:17.988Z,4.70
2018-08-03T16:37:48.604Z,4.83
2018-08-03T16:40:19.295Z,4.67
2018-08-03T16:42:49.991Z,4.40
2018-08-03T16:45:20.661Z,4.37
2018-08-03T16:47:51.332Z,4.15
2018-08-03T16:50:22.009Z,4.80
2018-08-03T16:52:52.843Z,4.35
2018-08-03T16:55:23.516Z,9.98
2018-08-03T16:57:54.170Z,4.55
2018-08-03T17:00:24.564Z,5.35
2018-08-03T17:02:55.112Z,5.33
2018-08-03T17:05:25.818Z,5.30
2018-08-03T17:07:56.500Z,5.03
2018-08-03T17:10:27.160Z,4.60
2018-08-03T17:12:57.959Z,4.77
2018-08-03T17:15:28.626Z,4.70
2018-08-03T17:17:59.301Z,5.37
2018-08-03T17:20:29.930Z,4.93
2018-08-03T17:23:00.607Z,4.37
2018-08-03T17:25:31.248Z,4.30
2018-08-03T17:28:02.020Z,4.50
2018-08-03T17:30:32.666Z,4.50
2018-08-03T17:33:03.360Z,5.07
2018-08-03T17:35:34.010Z,4.80
2018-08-03T17:38:04.783Z,5.73
2018-08-03T17:40:35.451Z,4.50
2018-08-03T17:43:06.216Z,4.10
2018-08-03T17:45:36.922Z,4.27
2018-08-03T17:48:07.252Z,4.03
2018-08-03T17:50:37.939Z,4.23
2018-08-03T17:53:08.643Z,3.90
2018-08-03T17:55:39.285Z,4.47
2018-08-03T17:58:09.960Z,4.37
2018-08-03T18:00:40.589Z,4.67
2018-08-03T18:03:11.239Z,5.13
2018-08-03T18:05:41.907Z,5.30
2018-08-03T18:08:12.704Z,5.50
2018-08-03T18:10:43.436Z,5.43
2018-08-03T18:13:14.240Z,5.07
2018-08-03T18:15:44.960Z,3.67
2018-08-03T18:18:15.641Z,3.50
2018-08-03T18:20:46.288Z,5.03
2018-08-03T18:23:16.987Z,3.97
2018-08-03T18:25:47.697Z,7.43
2018-08-03T18:28:18.347Z,4.27
2018-08-03T18:30:49.077Z,4.23
2018-08-03T18:33:19.727Z,4.07
2018-08-03T18:35:50.437Z,5.47
2018-08-03T18:38:21.120Z,3.90
2018-08-03T18:40:51.837Z,3.83
2018-08-03T18:43:22.508Z,4.07
2018-08-03T18:45:53.197Z,4.60
2018-08-03T18:48:23.839Z,3.63
2018-08-03T18:50:54.642Z,3.73
2018-08-03T18:53:25.774Z,7.53
2018-08-03T18:55:56.401Z,3.70
2018-08-03T18:58:27.109Z,3.80
2018-08-03T19:00:57.830Z,6.37
2018-08-03T19:03:28.581Z,3.30
2018-08-03T19:05:59.302Z,6.00
2018-08-03T19:08:30.151Z,4.10
2018-08-03T19:11:01.007Z,5.53
2018-08-03T19:13:31.935Z,5.00
2018-08-03T19:16:02.572Z,5.00
2018-08-03T19:18:33.962Z,5.23
2018-08-03T19:21:04.761Z,4.33
2018-08-03T19:23:35.485Z,4.63
2018-08-03T19:26:06.264Z,5.10
2018-08-03T19:28:36.904Z,5.37
2018-08-03T19:31:07.613Z,7.33
2018-08-03T19:33:37.949Z,4.47
2018-08-03T19:36:08.546Z,5.17
2018-08-03T19:38:40.023Z,4.30
2018-08-03T19:41:10.895Z,4.93
2018-08-03T19:43:41.602Z,4.00
2018-08-03T19:46:12.335Z,3.70
2018-08-03T19:48:43.032Z,4.40
2018-08-03T19:51:13.716Z,3.60
2018-08-03T19:53:44.473Z,4.10
2018-08-03T19:56:15.204Z,4.80
2018-08-03T19:58:45.975Z,3.53
2018-08-03T20:01:16.616Z,4.10
2018-08-03T20:03:47.599Z,6.90
2018-08-03T20:06:18.015Z,3.93
2018-08-03T20:08:48.571Z,4.57
2018-08-03T20:11:19.282Z,5.87
2018-08-03T20:13:50.032Z,5.60
2018-08-03T20:16:21.062Z,7.27
2018-08-03T20:18:51.726Z,7.17
2018-08-03T20:21:22.367Z,3.80
2018-08-03T20:23:53.042Z,4.60
2018-08-03T20:26:23.730Z,4.33
2018-08-03T20:28:54.364Z,4.60
2018-08-03T20:31:25.040Z,4.50
2018-08-03T20:33:55.727Z,6.93
2018-08-03T20:36:26.503Z,3.60
2018-08-03T20:38:57.191Z,3.43
2018-08-03T20:41:28.001Z,5.27
2018-08-03T20:43:58.779Z,5.33
2018-08-03T20:46:29.424Z,4.00
2018-08-03T20:49:00.098Z,5.10
2018-08-03T20:51:30.936Z,6.33
2018-08-03T20:54:01.678Z,3.90
2018-08-03T20:56:32.336Z,3.93
2018-08-03T20:59:03.091Z,4.03
2018-08-03T21:01:33.745Z,4.50
2018-08-03T21:04:04.448Z,3.80
2018-08-03T21:06:35.078Z,5.00
2018-08-03T21:09:10.219Z,7.83
2018-08-03T21:11:40.982Z,6.47
2018-08-03T21:14:11.725Z,10.37
2018-08-03T21:16:42.500Z,7.93
2018-08-03T21:19:13.146Z,5.37
2018-08-03T21:21:43.808Z,7.33
2018-08-03T21:24:14.470Z,4.30
2018-08-03T21:26:45.135Z,3.87
2018-08-03T21:29:15.791Z,4.27
2018-08-03T21:31:46.476Z,3.60
2018-08-03T21:34:17.180Z,4.73
2018-08-03T21:36:47.849Z,9.30
2018-08-03T21:39:18.499Z,4.20
2018-08-03T21:41:49.169Z,4.07
2018-08-03T21:44:20.240Z,4.37
2018-08-03T21:46:50.883Z,5.93
2018-08-03T21:49:21.581Z,3.30
2018-08-03T21:51:52.206Z,3.30
2018-08-03T21:54:22.858Z,7.63
2018-08-03T21:56:53.503Z,3.40
2018-08-03T21:59:24.156Z,5.80
2018-08-03T22:01:54.839Z,4.07
2018-08-03T22:04:25.462Z,3.77
2018-08-03T22:06:56.150Z,6.37
2018-08-03T22:09:26.776Z,5.10
2018-08-03T22:11:57.493Z,4.90
2018-08-03T22:14:28.170Z,6.47
2018-08-03T22:16:58.887Z,6.93
2018-08-03T22:19:29.619Z,5.77
2018-08-03T22:22:00.372Z,5.00
2018-08-03T22:24:31.001Z,4.37
2018-08-03T22:27:01.782Z,4.23
2018-08-03T22:29:32.385Z,5.17
2018-08-03T22:32:03.064Z,3.43
2018-08-03T22:34:33.697Z,3.67
2018-08-03T22:37:04.376Z,3.40
2018-08-03T22:39:35.033Z,5.83
2018-08-03T22:42:05.759Z,5.10
2018-08-03T22:44:36.435Z,4.77
2018-08-03T22:47:07.168Z,6.67
2018-08-03T22:49:37.831Z,5.50
2018-08-03T22:52:08.558Z,4.43
2018-08-03T22:54:39.189Z,4.37
2018-08-03T22:57:09.861Z,3.73
2018-08-03T22:59:40.511Z,5.20
2018-08-03T23:02:11.222Z,6.03
2018-08-03T23:04:41.886Z,12.13
2018-08-03T23:07:12.540Z,5.83
2018-08-03T23:09:43.270Z,6.50
2018-08-03T23:12:13.943Z,4.87
2018-08-03T23:14:44.673Z,5.30
2018-08-03T23:17:15.289Z,4.87
2018-08-03T23:19:45.970Z,4.73
2018-08-03T23:22:16.593Z,6.27
2018-08-03T23:24:47.305Z,3.60
2018-08-03T23:27:17.952Z,3.43
2018-08-03T23:29:48.674Z,5.50
2018-08-03T23:32:19.340Z,5.13
2018-08-03T23:34:50.079Z,3.73
2018-08-03T23:37:20.739Z,4.23
2018-08-03T23:39:51.524Z,7.00
2018-08-03T23:42:22.219Z,6.27
2018-08-03T23:44:52.920Z,6.13
2018-08-03T23:47:23.629Z,4.33
2018-08-03T23:49:54.330Z,3.60
2018-08-03T23:52:25.037Z,3.77
2018-08-03T23:54:55.822Z,2.77
2018-08-03T23:57:26.552Z,4.37
2018-08-03T23:59:57.291Z,5.27
